Time;durP1;ratioP1;P1;durP2;ratioP2;P2;SDS_P1;SDS_P2;PMS_P1;PMS_P2;Temp;Humidity;BMP_temperature;BMP_pressure;BME280_temperature;BME280_humidity;BME280_pressure;Samples;Min_cycle;Max_cycle;Signal;HPM_P1;HPM_P2
2022/05/03 00:01:35;;;;;;;13.15;8.55;;;12.50;64.40;;;;;;5073262;28;20044;-74
2022/05/03 00:04:57;;;;;;;12.68;7.47;;;12.50;64.80;;;;;;5072608;28;20027;-74
2022/05/03 00:07:42;;;;;;;12.75;7.80;;;12.40;64.50;;;;;;5072389;28;20032;-73
2022/05/03 00:10:13;;;;;;;18.60;10.60;;;12.40;64.80;;;;;;5073273;28;20059;-74
2022/05/03 00:13:35;;;;;;;16.63;10.10;;;12.30;65.00;;;;;;5072551;28;20153;-78
2022/05/03 00:16:02;;;;;;;35.72;16.90;;;12.30;65.40;;;;;;5073055;28;20049;-79
2022/05/03 00:18:29;;;;;;;38.13;16.83;;;12.20;65.40;;;;;;5072244;28;20370;-79
2022/05/03 00:20:56;;;;;;;23.48;10.88;;;12.10;65.50;;;;;;5055086;28;20028;-74
2022/05/03 00:23:22;;;;;;;19.67;10.57;;;12.20;65.70;;;;;;5072486;28;20383;-78
2022/05/03 00:25:51;;;;;;;10.57;7.13;;;12.10;65.70;;;;;;5071680;28;20389;-78
2022/05/03 00:28:38;;;;;;;11.55;6.70;;;12.00;65.30;;;;;;5072518;28;20044;-79
2022/05/03 00:31:06;;;;;;;;;;;12.00;65.40;;;;;;5073343;28;20498;-74
2022/05/03 00:33:35;;;;;;;;;;;11.90;64.80;;;;;;5072436;28;20433;-75
2022/05/03 00:36:01;;;;;;;20.25;6.97;;;11.70;64.60;;;;;;5071384;28;19912;-79
2022/05/03 00:38:33;;;;;;;12.85;7.07;;;11.70;65.10;;;;;;5070988;28;20043;-78
2022/05/03 00:41:03;;;;;;;29.33;7.80;;;11.70;65.40;;;;;;5072798;28;20032;-74
2022/05/03 00:44:55;;;;;;;10.20;6.75;;;11.60;65.40;;;;;;5071777;28;20033;-79
2022/05/03 00:47:00;;;;;;;30.20;6.90;;;11.50;65.40;;;;;;5072710;28;20036;-79
2022/05/03 00:49:55;;;;;;;29.90;6.53;;;11.40;65.50;;;;;;5071787;28;20036;-74
2022/05/03 00:52:44;;;;;;;9.57;6.30;;;11.40;65.40;;;;;;5071863;28;20037;-74
2022/05/03 00:55:42;;;;;;;13.32;6.70;;;11.30;65.60;;;;;;5071232;28;20089;-74
2022/05/03 00:58:45;;;;;;;;;;;11.30;65.40;;;;;;5073830;28;20047;-74
2022/05/03 01:01:33;;;;;;;9.63;6.22;;;11.30;64.70;;;;;;5072377;28;19920;-74
2022/05/03 01:04:26;;;;;;;;;;;11.20;65.30;;;;;;5072139;28;20028;-79
2022/05/03 01:07:01;;;;;;;10.90;6.32;;;11.20;64.60;;;;;;5053621;28;19916;-74
2022/05/03 01:10:05;;;;;;;17.20;5.85;;;11.10;65.50;;;;;;5071381;28;20044;-74
2022/05/03 01:13:27;;;;;;;8.93;5.95;;;11.10;65.60;;;;;;5071347;28;20032;-74
2022/05/03 01:16:05;;;;;;;38.58;7.07;;;11.10;65.40;;;;;;5072252;28;20508;-79
2022/05/03 01:18:44;;;;;;;22.95;6.28;;;11.00;65.40;;;;;;5071389;28;20036;-79
2022/05/03 01:21:47;;;;;;;19.98;6.07;;;11.00;65.60;;;;;;5070946;28;20025;-80
2022/05/03 01:24:51;;;;;;;32.78;5.78;;;11.00;65.60;;;;;;5071578;28;20032;-74
2022/05/03 01:27:49;;;;;;;12.95;6.57;;;11.00;65.20;;;;;;5070905;28;20043;-75
2022/05/03 01:30:15;;;;;;;;;;;10.90;65.10;;;;;;5072779;28;20064;-80
2022/05/03 01:32:44;;;;;;;14.25;7.32;;;10.90;63.90;;;;;;5071358;28;19961;-80
2022/05/03 01:35:14;;;;;;;18.05;7.10;;;11.00;64.80;;;;;;5071999;28;20036;-79
2022/05/03 01:38:24;;;;;;;22.35;7.53;;;11.00;65.00;;;;;;5071417;28;20389;-74
2022/05/03 01:41:23;;;;;;;18.55;8.10;;;11.10;65.10;;;;;;5070638;28;20036;-74
2022/05/03 01:44:13;;;;;;;48.45;7.47;;;11.10;65.30;;;;;;5072527;28;20430;-79
2022/05/03 01:46:40;;;;;;;40.13;8.23;;;11.20;65.30;;;;;;5072036;28;20477;-74
2022/05/03 01:53:11;;;;;;;73.38;8.23;;;11.20;66.30;;;;;;5070298;28;20040;-74
2022/05/03 01:56:26;;;;;;;78.53;8.00;;;11.20;66.30;;;;;;5070674;28;20040;-74
2022/05/03 01:59:50;;;;;;;69.95;8.55;;;11.20;66.70;;;;;;5070728;28;20043;-80
2022/05/03 02:02:27;;;;;;;39.33;8.00;;;11.20;66.90;;;;;;5070487;28;20473;-74
2022/05/03 02:05:18;;;;;;;60.42;8.27;;;11.20;67.30;;;;;;5072256;28;20123;-74
2022/05/03 02:08:03;;;;;;;21.70;6.97;;;11.20;67.40;;;;;;5069944;28;20106;-75
2022/05/03 02:11:25;;;;;;;40.00;7.93;;;11.10;67.60;;;;;;5070547;28;20033;-74
2022/05/03 02:14:47;;;;;;;20.08;8.13;;;11.20;67.30;;;;;;5075813;28;20040;-79
2022/05/03 02:17:56;;;;;;;24.95;7.65;;;11.10;67.20;;;;;;5075495;28;20497;-79
2022/05/03 02:21:06;;;;;;;11.75;7.18;;;11.10;67.40;;;;;;5075313;28;20036;-74
2022/05/03 02:24:11;;;;;;;17.52;5.80;;;11.10;67.40;;;;;;5074706;28;20056;-79
2022/05/03 02:27:15;;;;;;;17.23;6.43;;;11.10;67.10;;;;;;5074103;28;20078;-79
2022/05/03 02:30:03;;;;;;;12.43;5.63;;;11.10;67.00;;;;;;5074426;28;20029;-79
2022/05/03 02:33:26;;;;;;;16.52;5.88;;;11.10;67.40;;;;;;5057607;28;20554;-74
2022/05/03 02:35:57;;;;;;;27.33;6.07;;;11.00;67.30;;;;;;5074952;28;20037;-75
2022/05/03 02:39:21;;;;;;;18.83;5.95;;;11.00;67.40;;;;;;5073301;28;20037;-79
2022/05/03 02:41:50;;;;;;;12.93;5.60;;;10.90;67.50;;;;;;5075105;28;20111;-74
2022/05/03 02:44:19;;;;;;;11.73;5.80;;;10.90;67.50;;;;;;5075200;28;20119;-74
2022/05/03 02:47:06;;;;;;;9.55;5.47;;;10.90;67.60;;;;;;5073847;28;20363;-79
2022/05/03 02:50:12;;;;;;;12.27;5.68;;;10.90;67.80;;;;;;5073962;28;20041;-78
2022/05/03 02:53:02;;;;;;;10.73;5.75;;;10.90;67.70;;;;;;5075450;28;20047;-79
2022/05/03 02:56:26;;;;;;;12.63;5.47;;;10.80;67.60;;;;;;5073473;28;20044;-74
2022/05/03 02:59:11;;;;;;;14.25;5.45;;;10.80;67.60;;;;;;5075192;28;20040;-74
2022/05/03 03:02:09;;;;;;;14.57;5.78;;;10.70;67.90;;;;;;5074903;28;20385;-74
2022/05/03 03:04:46;;;;;;;11.98;5.40;;;10.70;68.20;;;;;;5073576;28;20032;-74
2022/05/03 03:07:53;;;;;;;10.80;6.05;;;10.60;68.10;;;;;;5074709;28;20040;-77
2022/05/03 03:10:22;;;;;;;12.63;6.53;;;10.50;68.00;;;;;;5072923;28;20066;-79
2022/05/03 03:12:55;;;;;;;9.13;5.88;;;10.50;68.00;;;;;;5073780;28;20032;-78
2022/05/03 03:15:29;;;;;;;11.98;6.15;;;10.50;68.00;;;;;;5074343;28;20119;-74
2022/05/03 03:18:00;;;;;;;9.57;5.47;;;10.50;67.70;;;;;;5073506;28;20028;-74
2022/05/03 03:20:28;;;;;;;17.55;6.20;;;10.50;67.60;;;;;;5073109;28;20656;-74
2022/05/03 03:22:55;;;;;;;10.43;6.80;;;10.50;67.80;;;;;;5055958;28;20041;-79
2022/05/03 03:25:23;;;;;;;16.13;6.72;;;10.30;67.60;;;;;;5073291;28;20090;-75
2022/05/03 03:27:53;;;;;;;20.08;6.35;;;10.30;68.30;;;;;;5073469;28;20075;-79
2022/05/03 03:30:20;;;;;;;38.75;7.30;;;10.20;68.50;;;;;;5072869;28;20047;-79
2022/05/03 03:33:07;;;;;;;36.15;8.10;;;10.20;68.50;;;;;;5073389;28;20110;-74
2022/05/03 03:35:36;;;;;;;44.45;7.40;;;10.30;68.90;;;;;;5056028;28;20044;-74
2022/05/03 03:38:03;;;;;;;19.77;6.55;;;10.30;68.80;;;;;;5073344;28;20033;-75
2022/05/03 03:40:29;;;;;;;20.95;6.25;;;10.30;68.80;;;;;;5072100;28;20036;-74
2022/05/03 03:42:56;;;;;;;8.65;5.78;;;10.30;68.70;;;;;;5056388;28;20393;-74
2022/05/03 03:45:23;;;;;;;18.65;6.25;;;10.30;68.50;;;;;;5072544;28;20638;-74
2022/05/03 03:47:50;;;;;;;11.05;6.28;;;10.30;68.60;;;;;;5073071;28;20036;-74
2022/05/03 03:50:16;;;;;;;13.93;6.20;;;10.30;68.50;;;;;;5072352;28;20039;-74
2022/05/03 03:52:46;;;;;;;20.60;6.13;;;10.30;68.50;;;;;;5073021;28;20039;-74
2022/05/03 03:55:14;;;;;;;19.27;6.40;;;10.30;68.40;;;;;;5071281;28;20033;-79
2022/05/03 03:57:41;;;;;;;17.23;6.15;;;10.20;68.30;;;;;;5072768;28;20417;-79
2022/05/03 04:00:27;;;;;;;16.95;6.45;;;10.20;68.40;;;;;;5072178;28;20062;-74
2022/05/03 04:02:53;;;;;;;10.55;6.18;;;10.20;68.60;;;;;;5072704;28;20037;-79
2022/05/03 04:05:38;;;;;;;18.65;5.75;;;10.20;68.40;;;;;;5072121;28;20036;-78
2022/05/03 04:08:05;;;;;;;16.08;5.75;;;10.20;68.80;;;;;;5072611;28;20033;-75
2022/05/03 04:10:31;;;;;;;9.55;6.05;;;10.20;68.40;;;;;;5054448;28;20033;-78
2022/05/03 04:12:57;;;;;;;13.18;5.78;;;10.20;68.60;;;;;;5074040;28;20037;-74
2022/05/03 04:15:26;;;;;;;15.18;5.55;;;10.20;68.50;;;;;;5071878;28;20036;-75
2022/05/03 04:17:53;;;;;;;13.55;6.13;;;10.20;68.40;;;;;;5072437;28;20063;-74
2022/05/03 04:20:19;;;;;;;11.50;5.25;;;10.20;68.30;;;;;;5071811;28;20067;-78
2022/05/03 04:22:45;;;;;;;;;;;10.10;67.90;;;;;;5072592;28;20053;-74
2022/05/03 04:25:11;;;;;;;26.50;13.55;;;10.00;67.90;;;;;;5071131;28;20403;-78
2022/05/03 04:27:38;;;;;;;16.88;8.50;;;10.00;68.50;;;;;;5055644;28;20107;-77
2022/05/03 04:30:05;;;;;;;31.27;14.57;;;10.00;68.30;;;;;;5073199;28;20064;-78
2022/05/03 04:32:33;;;;;;;16.75;9.18;;;10.00;67.90;;;;;;5055263;28;20040;-78
2022/05/03 04:35:00;;;;;;;20.98;9.48;;;10.10;67.90;;;;;;5071278;28;20448;-78
2022/05/03 04:37:27;;;;;;;14.63;7.50;;;10.10;67.10;;;;;;5073053;28;20086;-74
2022/05/03 04:39:53;;;;;;;14.73;7.25;;;10.10;67.60;;;;;;5071168;28;20554;-74
2022/05/03 04:42:20;;;;;;;16.20;8.00;;;10.10;67.90;;;;;;5071513;28;20495;-74
2022/05/03 04:44:46;;;;;;;12.02;6.13;;;10.10;67.80;;;;;;5071852;28;20448;-74
2022/05/03 04:47:12;;;;;;;9.13;6.07;;;10.20;67.50;;;;;;5071427;28;20064;-78
2022/05/03 04:49:38;;;;;;;9.77;5.50;;;10.20;67.30;;;;;;5071859;28;20045;-74
2022/05/03 04:52:05;;;;;;;9.77;6.18;;;10.20;67.20;;;;;;5072919;28;20045;-78
2022/05/03 04:54:31;;;;;;;10.25;5.65;;;10.20;67.00;;;;;;5071684;28;20055;-78
2022/05/03 04:57:01;;;;;;;8.52;5.72;;;10.20;67.00;;;;;;5054071;28;20032;-78
2022/05/03 04:59:27;;;;;;;15.18;6.47;;;10.30;67.00;;;;;;5071621;28;20080;-74
2022/05/03 05:01:53;;;;;;;;;;;10.30;66.40;;;;;;5071641;28;20405;-74
2022/05/03 05:04:19;;;;;;;10.70;5.30;;;10.30;66.60;;;;;;5071635;28;20014;-78
2022/05/03 05:06:45;;;;;;;;;;;10.40;66.10;;;;;;5055097;28;20029;-78
2022/05/03 05:09:11;;;;;;;9.57;5.80;;;10.40;66.40;;;;;;5070568;28;20373;-74
2022/05/03 05:11:38;;;;;;;11.43;5.35;;;10.40;66.50;;;;;;5072490;28;20462;-77
2022/05/03 05:14:04;;;;;;;22.27;10.52;;;10.50;66.10;;;;;;5072664;28;20047;-74
2022/05/03 05:16:30;;;;;;;19.38;9.80;;;10.60;66.70;;;;;;5071056;28;20032;-78
2022/05/03 05:18:56;;;;;;;19.13;9.48;;;10.60;66.70;;;;;;5054776;28;20245;-77
2022/05/03 05:21:22;;;;;;;16.00;11.15;;;10.70;66.70;;;;;;5072153;28;20587;-73
2022/05/03 05:23:48;;;;;;;21.70;11.68;;;10.80;66.60;;;;;;5071429;28;20055;-74
2022/05/03 05:26:14;;;;;;;24.95;16.40;;;11.00;66.50;;;;;;5069847;28;20485;-78
2022/05/03 05:28:41;;;;;;;23.08;16.88;;;11.10;66.50;;;;;;5071425;28;20386;-74
2022/05/03 05:31:07;;;;;;;14.45;9.43;;;11.10;66.60;;;;;;5072060;28;20046;-77
2022/05/03 05:33:33;;;;;;;;;;;11.20;66.60;;;;;;5071787;28;20047;-78
2022/05/03 05:35:59;;;;;;;17.88;11.20;;;11.20;66.50;;;;;;5053948;28;20373;-74
2022/05/03 05:38:25;;;;;;;10.50;7.10;;;11.30;66.40;;;;;;5071194;28;20098;-74
2022/05/03 05:40:52;;;;;;;9.85;6.30;;;11.30;66.40;;;;;;5069805;28;20051;-74
2022/05/03 05:43:18;;;;;;;13.13;5.90;;;11.40;66.40;;;;;;5071143;28;20396;-78
2022/05/03 05:45:45;;;;;;;9.77;5.30;;;11.40;65.80;;;;;;5072392;28;20060;-77
2022/05/03 05:48:13;;;;;;;;;;;11.50;65.80;;;;;;5077459;28;20037;-78
2022/05/03 05:50:39;;;;;;;8.68;5.28;;;11.50;65.90;;;;;;5058311;28;19964;-78
2022/05/03 05:55:50;;;;;;;8.70;4.90;;;11.60;66.10;;;;;;5073967;28;20316;-74
2022/05/03 05:58:17;;;;;;;7.88;4.80;;;11.70;66.40;;;;;;5074840;28;20095;-74
2022/05/03 06:00:43;;;;;;;9.55;6.43;;;11.90;66.40;;;;;;5074648;28;20033;-78
2022/05/03 06:03:09;;;;;;;10.57;5.65;;;12.00;66.20;;;;;;5076583;28;20392;-77
2022/05/03 06:05:35;;;;;;;8.57;5.75;;;12.20;65.70;;;;;;5074524;28;20383;-74
2022/05/03 06:08:01;;;;;;;8.88;5.90;;;12.40;65.70;;;;;;5074871;28;20044;-74
2022/05/03 06:10:28;;;;;;;9.02;5.97;;;12.50;65.40;;;;;;5073353;28;20032;-78
2022/05/03 06:12:54;;;;;;;9.27;5.63;;;12.60;65.30;;;;;;5074780;28;20480;-73
2022/05/03 06:15:20;;;;;;;9.05;6.10;;;12.80;65.20;;;;;;5075697;28;20037;-74
2022/05/03 06:17:47;;;;;;;9.77;6.63;;;12.90;64.90;;;;;;5058095;28;20543;-74
2022/05/03 06:20:13;;;;;;;10.25;5.93;;;13.10;64.60;;;;;;5074259;28;20438;-74
2022/05/03 06:22:42;;;;;;;9.65;6.00;;;13.20;64.20;;;;;;5075662;28;20515;-74
2022/05/03 06:25:09;;;;;;;15.35;6.65;;;13.50;63.90;;;;;;5056869;28;20551;-74
2022/05/03 06:27:54;;;;;;;18.30;12.98;;;13.60;63.40;;;;;;5057630;28;20562;-74
2022/05/03 06:30:20;;;;;;;15.13;9.45;;;13.80;63.20;;;;;;5075227;28;20036;-74
2022/05/03 06:32:46;;;;;;;11.30;7.47;;;14.00;62.90;;;;;;5074521;28;20060;-74
2022/05/03 06:35:14;;;;;;;16.80;10.00;;;14.20;62.60;;;;;;5074966;28;20045;-74
2022/05/03 06:40:27;;;;;;;11.77;5.68;;;14.40;62.30;;;;;;5073143;28;20390;-74
2022/05/03 06:42:54;;;;;;;7.63;5.18;;;14.50;62.50;;;;;;5074006;28;20124;-74
2022/05/03 06:45:21;;;;;;;9.32;5.15;;;14.70;62.30;;;;;;5073583;28;20043;-74
2022/05/03 06:47:51;;;;;;;8.30;5.03;;;14.70;61.50;;;;;;5057580;28;20079;-74
2022/05/03 06:50:17;;;;;;;8.30;4.63;;;14.90;61.80;;;;;;5074889;28;20090;-74
2022/05/03 06:52:44;;;;;;;12.77;5.03;;;15.10;61.60;;;;;;5057449;28;20036;-78
2022/05/03 06:55:13;;;;;;;11.02;6.28;;;15.20;61.20;;;;;;5072460;28;20052;-75
2022/05/03 06:57:40;;;;;;;7.47;3.75;;;15.50;61.10;;;;;;5056752;28;20055;-78
2022/05/03 07:00:08;;;;;;;8.10;3.95;;;15.80;60.30;;;;;;5073727;28;20399;-74
2022/05/03 07:02:35;;;;;;;6.28;3.40;;;16.00;59.50;;;;;;5073930;28;20481;-74
2022/05/03 07:05:03;;;;;;;8.88;3.55;;;16.20;59.10;;;;;;5073871;28;20028;-79
2022/05/03 07:07:30;;;;;;;6.65;3.88;;;16.40;58.60;;;;;;5073510;28;20397;-77
2022/05/03 07:09:58;;;;;;;7.45;4.10;;;16.70;58.30;;;;;;5056206;28;20063;-74
2022/05/03 07:12:45;;;;;;;6.15;3.50;;;16.90;58.00;;;;;;5038377;28;20532;-79
2022/05/03 07:15:11;;;;;;;5.95;3.45;;;17.20;57.60;;;;;;5051913;28;20033;-78
2022/05/03 07:23:08;;;;;;;8.60;4.07;;;17.90;56.80;;;;;;5038039;28;20107;-74
2022/05/03 07:25:35;;;;;;;7.80;3.70;;;18.10;56.60;;;;;;5034142;28;20079;-74
2022/05/03 07:28:01;;;;;;;11.05;3.63;;;18.10;56.30;;;;;;5052076;28;20468;-74
2022/05/03 07:30:27;;;;;;;7.72;3.50;;;18.10;55.80;;;;;;5034994;28;20051;-78
2022/05/03 07:32:54;;;;;;;8.15;3.58;;;18.10;55.60;;;;;;5051975;28;20095;-73
2022/05/03 07:35:20;;;;;;;10.00;3.70;;;18.20;55.30;;;;;;5034901;28;20033;-78
2022/05/03 07:37:46;;;;;;;;;;;18.40;54.80;;;;;;5035685;28;20041;-77
2022/05/03 07:40:12;;;;;;;16.30;8.48;;;18.50;55.30;;;;;;5034302;28;19916;-77
2022/05/03 07:42:39;;;;;;;6.97;3.88;;;18.70;53.50;;;;;;5039779;28;20129;-77
2022/05/03 07:45:06;;;;;;;13.52;5.28;;;18.80;53.40;;;;;;5073994;28;20032;-78
2022/05/03 07:47:32;;;;;;;25.80;13.18;;;19.00;52.80;;;;;;5072732;28;20166;-78
2022/05/03 07:49:58;;;;;;;;;;;19.30;53.10;;;;;;5073477;28;20115;-73
2022/05/03 07:52:27;;;;;;;11.48;4.22;;;19.70;54.40;;;;;;5072521;28;20380;-78
2022/05/03 07:54:54;;;;;;;6.07;3.17;;;20.10;52.20;;;;;;5072725;28;20029;-73
2022/05/03 07:57:20;;;;;;;6.40;3.20;;;20.50;52.30;;;;;;5054584;28;20044;-74
2022/05/03 07:59:46;;;;;;;;;;;20.80;51.50;;;;;;5074531;28;20530;-74
2022/05/03 08:02:12;;;;;;;10.88;4.00;;;21.30;53.70;;;;;;5055577;28;19920;-74
2022/05/03 08:07:23;;;;;;;4.82;2.67;;;22.30;49.10;;;;;;5072697;28;20047;-74
2022/05/03 08:09:49;;;;;;;;;;;23.00;47.30;;;;;;5056280;28;20036;-74
2022/05/03 08:12:16;;;;;;;9.48;3.30;;;23.60;49.10;;;;;;5071022;28;19917;-79
2022/05/03 08:14:42;;;;;;;4.88;2.70;;;24.00;44.30;;;;;;5073576;28;20067;-79
2022/05/03 08:17:09;;;;;;;5.45;2.78;;;24.70;42.80;;;;;;5072060;28;20083;-79
2022/05/03 08:19:35;;;;;;;9.25;2.85;;;25.40;40.60;;;;;;5073447;28;20033;-74
2022/05/03 08:22:02;;;;;;;5.15;2.50;;;25.90;38.20;;;;;;5054987;28;20057;-79
2022/05/03 08:24:28;;;;;;;5.53;3.20;;;26.50;37.90;;;;;;5072216;28;20047;-75
2022/05/03 08:26:55;;;;;;;5.47;2.70;;;27.10;36.90;;;;;;5072196;28;20032;-74
2022/05/03 08:29:21;;;;;;;7.55;2.45;;;27.60;35.90;;;;;;5055341;28;20036;-74
2022/05/03 08:31:47;;;;;;;5.93;2.53;;;28.30;34.70;;;;;;5071688;28;20066;-80
2022/05/03 08:34:15;;;;;;;5.00;2.78;;;28.90;32.90;;;;;;5071914;28;20036;-75
2022/05/03 08:42:01;;;;;;;5.80;2.65;;;29.40;31.30;;;;;;5055117;28;20028;-75
2022/05/03 08:42:13;;;;;;;4.75;2.00;;;30.60;30.00;;;;;;5071928;28;20047;-80
2022/05/03 08:44:40;;;;;;;5.28;2.42;;;31.20;28.50;;;;;;5071873;28;20582;-75
2022/05/03 08:47:06;;;;;;;6.22;2.50;;;31.70;27.60;;;;;;5071461;28;20064;-75
2022/05/03 08:50:09;;;;;;;6.63;2.25;;;32.20;26.20;;;;;;5073067;28;20041;-74
2022/05/03 08:52:58;;;;;;;4.88;2.35;;;32.90;27.50;;;;;;5071651;28;20036;-79
2022/05/03 08:55:24;;;;;;;5.78;2.53;;;33.50;26.20;;;;;;5071140;28;20050;-79
2022/05/03 08:57:51;;;;;;;5.50;2.03;;;34.00;25.30;;;;;;5070877;28;20028;-79
2022/05/03 09:00:19;;;;;;;11.63;2.78;;;34.60;22.60;;;;;;5071240;28;20107;-79
2022/05/03 09:03:04;;;;;;;5.68;2.50;;;34.90;22.30;;;;;;5071743;28;20037;-79
2022/05/03 09:05:30;;;;;;;5.43;2.30;;;35.40;23.00;;;;;;5072494;28;20046;-75
2022/05/03 09:08:21;;;;;;;5.88;2.22;;;35.90;21.90;;;;;;5073204;28;20040;-79
2022/05/03 09:10:48;;;;;;;4.80;2.70;;;36.40;21.90;;;;;;5070995;28;20041;-79
2022/05/03 09:13:18;;;;;;;5.47;2.28;;;36.90;20.20;;;;;;5070400;28;20082;-74
2022/05/03 09:15:48;;;;;;;5.90;2.58;;;37.60;20.00;;;;;;5071011;28;20081;-75
2022/05/03 09:18:33;;;;;;;4.97;2.30;;;38.10;19.20;;;;;;5071416;28;20040;-79
2022/05/03 09:24:01;;;;;;;5.22;2.15;;;38.30;17.50;;;;;;5072826;28;20072;-74
2022/05/03 09:26:29;;;;;;;4.72;2.38;;;39.00;17.50;;;;;;5070121;28;20040;-79
2022/05/03 09:29:14;;;;;;;4.68;2.28;;;39.70;17.00;;;;;;5054657;28;20044;-74
2022/05/03 09:31:46;;;;;;;5.23;2.47;;;40.10;17.40;;;;;;5071058;28;20031;-75
2022/05/03 09:34:31;;;;;;;6.32;2.50;;;40.30;16.80;;;;;;5071278;28;20040;-75
2022/05/03 09:37:00;;;;;;;3.97;2.08;;;40.70;16.80;;;;;;5054138;28;20132;-79
2022/05/03 09:40:03;;;;;;;4.85;2.45;;;41.10;15.30;;;;;;5072454;28;20037;-79
2022/05/03 09:42:30;;;;;;;5.03;2.38;;;41.40;16.30;;;;;;5050153;28;20105;-79
2022/05/03 09:45:40;;;;;;;7.05;2.38;;;42.00;15.40;;;;;;5052503;28;20679;-75
2022/05/03 09:48:07;;;;;;;4.63;2.30;;;42.40;15.20;;;;;;5052815;28;20083;-79
2022/05/03 09:50:55;;;;;;;4.80;2.40;;;42.90;13.50;;;;;;5067359;28;20033;-75
2022/05/03 09:53:21;;;;;;;5.85;2.00;;;43.20;14.10;;;;;;5067741;28;20375;-74
2022/05/03 09:55:48;;;;;;;5.03;2.47;;;43.30;12.90;;;;;;5051770;28;20111;-79
2022/05/03 09:58:18;;;;;;;4.20;2.10;;;43.40;12.10;;;;;;5069740;28;20033;-75
2022/05/03 10:03:31;;;;;;;5.20;2.97;;;43.50;12.90;;;;;;5071431;28;20047;-78
2022/05/03 10:05:57;;;;;;;7.20;2.28;;;43.80;12.70;;;;;;5070598;28;20074;-74
2022/05/03 10:08:24;;;;;;;4.53;2.13;;;44.30;12.80;;;;;;5070833;28;20036;-78
2022/05/03 10:10:58;;;;;;;3.38;1.83;;;44.90;11.80;;;;;;5071683;28;20035;-79
2022/05/03 10:13:26;;;;;;;4.00;2.03;;;45.50;11.80;;;;;;5070035;28;20413;-78
2022/05/03 10:21:33;;;;;;;5.70;2.33;;;46.30;11.30;;;;;;5070948;28;20063;-73
2022/05/03 10:24:18;;;;;;;4.57;2.42;;;46.80;11.20;;;;;;5070736;28;20037;-78
2022/05/03 10:30:28;;;;;;;3.72;2.22;;;46.80;8.40;;;;;;5071264;28;20090;-74
2022/05/03 10:33:31;;;;;;;4.28;2.08;;;46.80;10.10;;;;;;5072629;28;20107;-78
2022/05/03 10:36:55;;;;;;;7.47;2.30;;;47.50;10.90;;;;;;5073684;28;20594;-74
2022/05/03 10:39:22;;;;;;;4.95;2.40;;;47.90;10.50;;;;;;5075353;28;20040;-78
2022/05/03 10:41:54;;;;;;;5.05;2.35;;;48.20;10.00;;;;;;5056073;28;20497;-78
2022/05/03 10:45:16;;;;;;;6.05;2.60;;;48.50;9.70;;;;;;5075329;28;20435;-74
2022/05/03 10:48:01;;;;;;;4.82;2.50;;;49.10;10.80;;;;;;5075628;28;20390;-74
2022/05/03 10:50:48;;;;;;;5.07;2.40;;;49.70;9.70;;;;;;5075279;28;20124;-74
2022/05/03 10:53:57;;;;;;;5.20;2.85;;;49.70;9.50;;;;;;5066190;28;20106;-73
2022/05/03 10:56:23;;;;;;;5.00;2.50;;;49.10;10.40;;;;;;5052907;28;20075;-74
2022/05/03 10:59:10;;;;;;;4.40;2.70;;;49.40;9.10;;;;;;5069856;28;20486;-73
2022/05/03 11:01:55;;;;;;;6.03;2.55;;;49.40;8.70;;;;;;5056946;28;20032;-74
2022/05/03 11:04:23;;;;;;;6.00;2.38;;;49.50;9.30;;;;;;5075075;28;20032;-78
2022/05/03 11:09:34;;;;;;;5.05;3.08;;;50.10;8.30;;;;;;5073934;28;20162;-77
2022/05/03 11:12:04;;;;;;;5.43;2.70;;;50.50;8.90;;;;;;5073839;28;20374;-78
2022/05/03 11:14:30;;;;;;;6.93;2.88;;;50.70;8.60;;;;;;5053528;28;20433;-78
2022/05/03 11:17:14;;;;;;;5.90;3.13;;;50.40;8.60;;;;;;5054662;28;20029;-74
2022/05/03 11:19:59;;;;;;;4.72;2.90;;;50.80;9.00;;;;;;5053627;28;20112;-78
2022/05/03 11:22:45;;;;;;;6.05;3.17;;;51.00;9.70;;;;;;5052886;28;20041;-73
2022/05/03 11:25:15;;;;;;;5.20;3.17;;;49.50;9.70;;;;;;5054235;28;20052;-73
2022/05/03 11:27:44;;;;;;;8.05;3.00;;;48.20;10.10;;;;;;5058210;28;20039;-76
2022/05/03 11:30:12;;;;;;;5.72;2.67;;;46.30;10.20;;;;;;5072919;28;20516;-74
2022/05/03 11:32:58;;;;;;;5.25;2.60;;;44.60;11.10;;;;;;5073459;28;20040;-76
2022/05/03 11:35:24;;;;;;;6.25;2.83;;;44.60;11.90;;;;;;5072941;28;20244;-74
2022/05/03 11:37:55;;;;;;;5.68;3.10;;;45.50;11.60;;;;;;5073415;28;20036;-78
2022/05/03 11:40:26;;;;;;;6.25;2.90;;;46.20;12.00;;;;;;5056441;28;20068;-78
2022/05/03 11:42:53;;;;;;;5.20;2.60;;;46.80;11.20;;;;;;5055591;28;20115;-73
2022/05/03 11:45:19;;;;;;;8.95;2.70;;;47.20;10.90;;;;;;5072468;28;20119;-79
2022/05/03 11:48:06;;;;;;;7.05;3.17;;;47.30;11.70;;;;;;5073112;28;20032;-79
2022/05/03 11:56:06;;;;;;;6.03;2.40;;;44.90;11.80;;;;;;5073589;28;19973;-74
2022/05/03 11:58:36;;;;;;;7.53;2.50;;;43.30;12.10;;;;;;5055432;28;20037;-73
2022/05/03 12:01:12;;;;;;;6.53;2.60;;;42.20;12.50;;;;;;5055783;28;20481;-78
2022/05/03 12:03:58;;;;;;;5.70;2.65;;;41.20;12.60;;;;;;5072684;28;20064;-73
2022/05/03 12:06:34;;;;;;;5.35;2.80;;;40.00;13.80;;;;;;5072237;28;20047;-74
2022/05/03 12:09:00;;;;;;;5.90;2.58;;;39.10;15.10;;;;;;5072676;28;20087;-74
2022/05/03 12:11:26;;;;;;;6.47;2.63;;;38.20;15.60;;;;;;5072021;28;20040;-79
2022/05/03 12:13:53;;;;;;;4.80;2.35;;;37.50;16.20;;;;;;5054836;28;20039;-79
2022/05/03 12:16:38;;;;;;;4.32;2.35;;;36.80;15.50;;;;;;5071874;28;20029;-79
2022/05/03 12:19:04;;;;;;;6.07;2.80;;;35.70;16.70;;;;;;5055673;28;20035;-74
2022/05/03 12:21:31;;;;;;;4.75;2.28;;;35.10;18.10;;;;;;5055164;28;20504;-74
2022/05/03 12:24:16;;;;;;;6.03;2.40;;;36.60;16.70;;;;;;5072091;28;20088;-79
2022/05/03 12:26:44;;;;;;;4.80;2.38;;;36.50;16.20;;;;;;5071822;28;20115;-74
2022/05/03 12:29:10;;;;;;;6.40;2.90;;;35.60;17.50;;;;;;5071171;28;20091;-75
2022/05/03 12:31:55;;;;;;;6.03;2.42;;;34.90;18.00;;;;;;5073013;28;20040;-74
2022/05/03 12:34:24;;;;;;;5.10;3.22;;;34.20;18.70;;;;;;5071948;28;20094;-80
2022/05/03 12:37:01;;;;;;;7.32;2.67;;;33.70;18.80;;;;;;5071625;28;20032;-80
2022/05/03 12:39:30;;;;;;;6.18;2.55;;;33.30;19.50;;;;;;5073207;28;20040;-74
2022/05/03 12:44:59;;;;;;;4.45;2.20;;;38.20;16.90;;;;;;5072257;28;20046;-79
2022/05/03 12:50:11;;;;;;;4.10;2.27;;;40.90;13.50;;;;;;5067706;28;20120;-80
2022/05/03 12:52:37;;;;;;;5.38;2.13;;;42.10;13.90;;;;;;5071903;28;20116;-75
2022/05/03 12:55:04;;;;;;;3.58;2.00;;;42.50;13.10;;;;;;5072082;28;20508;-79
2022/05/03 13:00:15;;;;;;;4.72;2.38;;;44.80;11.30;;;;;;5052268;28;20171;-79
2022/05/03 13:02:41;;;;;;;4.57;2.35;;;45.10;11.10;;;;;;5055177;28;20052;-79
2022/05/03 13:05:08;;;;;;;8.30;2.53;;;46.20;11.00;;;;;;5052475;28;20033;-75
2022/05/03 13:07:34;;;;;;;4.45;2.22;;;46.70;11.10;;;;;;5051611;28;20099;-75
2022/05/03 13:10:00;;;;;;;5.43;2.00;;;46.20;10.80;;;;;;5051462;28;20029;-78
2022/05/03 13:12:26;;;;;;;4.93;2.53;;;45.90;10.70;;;;;;5052472;28;20033;-78
2022/05/03 13:14:52;;;;;;;4.28;2.13;;;45.40;10.70;;;;;;5066608;28;20044;-78
2022/05/03 13:17:18;;;;;;;4.07;2.22;;;46.60;9.90;;;;;;5071062;28;20033;-78
2022/05/03 13:19:45;;;;;;;6.32;2.60;;;47.40;9.90;;;;;;5072552;28;20039;-74
2022/05/03 13:22:11;;;;;;;5.25;2.58;;;47.70;9.70;;;;;;5072140;28;20110;-79
2022/05/03 13:24:37;;;;;;;4.97;2.47;;;48.00;9.60;;;;;;5071391;28;20390;-74
2022/05/03 13:27:06;;;;;;;4.75;2.22;;;48.10;9.10;;;;;;5071092;28;20052;-78
2022/05/03 13:29:32;;;;;;;5.45;2.42;;;47.60;8.90;;;;;;5071829;28;20393;-74
2022/05/03 13:32:00;;;;;;;3.70;2.20;;;47.40;9.80;;;;;;5070806;28;20439;-74
2022/05/03 13:34:26;;;;;;;4.88;2.72;;;47.70;9.80;;;;;;5054699;28;20056;-78
2022/05/03 13:42:22;;;;;;;3.70;2.28;;;49.10;9.20;;;;;;5071344;28;20492;-79
2022/05/03 13:44:48;;;;;;;5.90;2.30;;;49.40;9.30;;;;;;5070313;28;20048;-74
2022/05/03 13:47:14;;;;;;;5.47;2.58;;;49.00;9.00;;;;;;5071994;28;20074;-78
2022/05/03 13:49:42;;;;;;;5.38;2.33;;;47.80;9.80;;;;;;5071280;28;20093;-74
2022/05/03 13:52:08;;;;;;;5.57;2.38;;;46.80;10.10;;;;;;5070864;28;20440;-74
2022/05/03 13:54:35;;;;;;;6.13;2.75;;;44.70;10.20;;;;;;5070937;28;20060;-74
2022/05/03 13:57:02;;;;;;;4.22;2.42;;;43.00;11.80;;;;;;5068837;28;20051;-78
2022/05/03 13:59:28;;;;;;;3.55;1.90;;;41.70;12.40;;;;;;5060736;28;20029;-73
2022/05/03 14:01:54;;;;;;;5.10;2.00;;;40.80;13.20;;;;;;5055518;28;20113;-74
2022/05/03 14:04:20;;;;;;;4.95;2.50;;;40.50;13.50;;;;;;5044692;28;20473;-74
2022/05/03 14:06:46;;;;;;;7.03;2.28;;;42.10;13.40;;;;;;5059894;28;20040;-74
2022/05/03 14:09:12;;;;;;;5.25;2.28;;;43.80;12.20;;;;;;5056831;28;20055;-78
2022/05/03 14:11:38;;;;;;;6.65;2.45;;;44.30;11.60;;;;;;5065579;28;20071;-74
2022/05/03 14:14:04;;;;;;;5.13;2.30;;;45.20;11.10;;;;;;5039187;28;20041;-79
2022/05/03 14:16:30;;;;;;;4.65;1.90;;;45.40;10.20;;;;;;5059913;28;20045;-74
2022/05/03 14:19:00;;;;;;;5.90;2.30;;;45.50;10.00;;;;;;5068994;28;20056;-74
2022/05/03 14:21:27;;;;;;;5.75;2.17;;;44.50;10.10;;;;;;5074093;28;20116;-79
2022/05/03 14:23:54;;;;;;;4.32;2.28;;;42.40;11.30;;;;;;5074574;28;20048;-79